Time;durP1;ratioP1;P1;durP2;ratioP2;P2;SDS_P1;SDS_P2;PMS_P1;PMS_P2;Temp;Humidity;BMP_temperature;BMP_pressure;BME280_temperature;BME280_humidity;BME280_pressure;Samples;Min_cycle;Max_cycle;Signal;HPM_P1;HPM_P2
2021/11/26 00:00:28;;;;;;;10.30;2.13;;;;;;;-145.71;100.00;60690.53;4769526;30;20093;-91
2021/11/26 00:03:52;;;;;;;9.90;1.70;;;;;;;-145.71;100.00;60690.53;4768200;30;20109;-91
2021/11/26 00:07:18;;;;;;;13.02;2.60;;;;;;;-145.71;100.00;60690.53;4753002;30;20489;-91
2021/11/26 00:10:42;;;;;;;14.18;2.20;;;;;;;-145.71;100.00;60690.53;4769611;30;20860;-91
2021/11/26 00:14:17;;;;;;;11.75;2.00;;;;;;;-145.71;100.00;60690.53;4767742;30;20043;-91
2021/11/26 00:17:49;;;;;;;21.45;2.67;;;;;;;-145.71;100.00;60690.53;4752537;30;20549;-90
2021/11/26 00:21:12;;;;;;;21.92;2.17;;;;;;;-145.71;100.00;60690.53;4753292;30;20047;-91
2021/11/26 00:24:36;;;;;;;15.73;2.38;;;;;;;-145.71;100.00;60690.53;4771403;30;20878;-90
2021/11/26 00:28:01;;;;;;;15.73;2.60;;;;;;;-145.71;100.00;60690.53;4768874;30;20043;-90
2021/11/26 00:31:25;;;;;;;12.20;2.17;;;;;;;-145.71;100.00;60690.53;4768814;30;20823;-90
2021/11/26 00:34:49;;;;;;;7.72;1.80;;;;;;;-145.71;100.00;60690.53;4768520;30;20067;-91
2021/11/26 00:38:13;;;;;;;10.80;2.47;;;;;;;-145.71;100.00;60690.53;4768613;30;20070;-91
2021/11/26 00:41:38;;;;;;;12.18;2.20;;;;;;;-145.71;100.00;60690.53;4752685;30;20124;-90
2021/11/26 00:45:02;;;;;;;16.70;2.50;;;;;;;-145.71;100.00;60690.53;4752398;30;20203;-90
2021/11/26 00:48:26;;;;;;;25.83;3.08;;;;;;;-145.71;100.00;60690.53;4774480;30;20036;-89
2021/11/26 00:51:50;;;;;;;9.98;2.17;;;;;;;-145.71;100.00;60690.53;4752359;30;20420;-91
2021/11/26 00:55:14;;;;;;;8.05;2.38;;;;;;;-145.71;100.00;60690.53;4752661;30;20075;-91
2021/11/26 00:58:38;;;;;;;7.30;1.98;;;;;;;-145.71;100.00;60690.53;4752107;30;20049;-90
2021/11/26 01:02:03;;;;;;;7.72;1.73;;;;;;;-145.71;100.00;60690.53;4768539;30;20067;-91
2021/11/26 01:05:27;;;;;;;10.63;2.22;;;;;;;-145.71;100.00;60690.53;4766534;30;20131;-91
2021/11/26 01:08:51;;;;;;;8.43;1.35;;;;;;;-145.71;100.00;60690.53;4752267;30;20382;-91
2021/11/26 01:12:15;;;;;;;6.55;1.40;;;;;;;-145.71;100.00;60690.53;4752397;30;20480;-91
2021/11/26 01:15:39;;;;;;;10.70;1.80;;;;;;;-145.71;100.00;60690.53;4769006;30;20151;-90
2021/11/26 01:19:04;;;;;;;11.10;1.98;;;;;;;-145.71;100.00;60690.53;4761037;30;20047;-91
2021/11/26 01:22:28;;;;;;;4.80;1.40;;;;;;;-145.71;100.00;60690.53;4768033;30;20161;-91
2021/11/26 01:25:53;;;;;;;8.63;1.42;;;;;;;-145.71;100.00;60690.53;4751763;30;20036;-91
2021/11/26 01:29:17;;;;;;;10.07;2.28;;;;;;;-145.71;100.00;60690.53;4751805;30;20089;-91
2021/11/26 01:32:41;;;;;;;13.38;2.03;;;;;;;-145.71;100.00;60690.53;4751657;30;20036;-91
2021/11/26 01:36:06;;;;;;;15.13;3.47;;;;;;;-145.71;100.00;60690.53;4767600;30;20138;-91
2021/11/26 01:39:30;;;;;;;12.65;3.15;;;;;;;-145.71;100.00;60690.53;4751563;30;20038;-91
2021/11/26 01:42:55;;;;;;;12.25;2.25;;;;;;;-145.71;100.00;60690.53;4737507;30;20073;-91
2021/11/26 01:46:21;;;;;;;14.45;2.70;;;;;;;-145.71;100.00;60690.53;4763809;30;20868;-91
2021/11/26 01:49:46;;;;;;;9.38;1.85;;;;;;;-145.71;100.00;60690.53;4767671;30;20059;-91
2021/11/26 01:53:10;;;;;;;8.40;1.65;;;;;;;-145.71;100.00;60690.53;4751780;30;20397;-92
2021/11/26 01:56:35;;;;;;;15.60;2.28;;;;;;;-145.71;100.00;60690.53;4766842;30;20128;-92
2021/11/26 01:59:59;;;;;;;7.97;2.28;;;;;;;-145.71;100.00;60690.53;4751798;30;20108;-91
2021/11/26 02:03:23;;;;;;;10.48;1.95;;;;;;;-145.71;100.00;60690.53;4766539;30;20070;-91
2021/11/26 02:06:47;;;;;;;10.27;2.40;;;;;;;-145.71;100.00;60690.53;4767618;30;20054;-91
2021/11/26 02:10:11;;;;;;;12.75;2.13;;;;;;;-145.71;100.00;60690.53;4768096;30;20040;-91
2021/11/26 02:13:35;;;;;;;12.43;2.10;;;;;;;-145.71;100.00;60690.53;4755216;30;20123;-91
2021/11/26 02:17:00;;;;;;;14.93;2.25;;;;;;;-145.71;100.00;60690.53;4755169;30;20112;-90
2021/11/26 02:20:26;;;;;;;20.52;5.10;;;;;;;-145.71;100.00;60690.53;4770714;30;20036;-91
2021/11/26 02:23:51;;;;;;;11.73;1.70;;;;;;;-145.71;100.00;60690.53;4770930;30;20441;-91
2021/11/26 02:27:16;;;;;;;8.18;2.70;;;;;;;-145.71;100.00;60690.53;4770767;30;20505;-91
2021/11/26 02:30:40;;;;;;;13.20;2.15;;;;;;;-145.71;100.00;60690.53;4770690;30;20036;-91
2021/11/26 02:34:10;;;;;;;12.23;1.95;;;;;;;-145.71;100.00;60690.53;4760235;30;20036;-91
2021/11/26 02:37:35;;;;;;;11.07;1.40;;;;;;;-145.71;100.00;60690.53;4754741;30;20039;-91
2021/11/26 02:40:59;;;;;;;14.50;2.47;;;;;;;-145.71;100.00;60690.53;4770911;30;20062;-90
2021/11/26 02:44:23;;;;;;;16.80;2.85;;;;;;;-145.71;100.00;60690.53;4754239;30;20040;-91
2021/11/26 02:47:47;;;;;;;11.98;2.40;;;;;;;-145.71;100.00;60690.53;4754589;30;20092;-90
2021/11/26 02:51:12;;;;;;;11.30;3.30;;;;;;;-145.71;100.00;60690.53;4754320;30;20494;-90
2021/11/26 02:54:36;;;;;;;8.30;2.35;;;;;;;-145.71;100.00;60690.53;4770356;30;20039;-90
2021/11/26 02:58:00;;;;;;;11.38;1.70;;;;;;;-145.71;100.00;60690.53;4770720;30;20038;-90
2021/11/26 03:01:25;;;;;;;15.48;2.55;;;;;;;-145.71;100.00;60690.53;4754196;30;20476;-91
2021/11/26 03:04:49;;;;;;;6.65;1.95;;;;;;;-145.71;100.00;60690.53;4756034;30;20044;-91
2021/11/26 03:08:13;;;;;;;5.85;1.92;;;;;;;-145.71;100.00;60690.53;4770064;30;20081;-91
2021/11/26 03:11:37;;;;;;;5.25;1.88;;;;;;;-145.71;100.00;60690.53;4754354;30;20054;-91
2021/11/26 03:15:02;;;;;;;9.05;2.63;;;;;;;-145.71;100.00;60690.53;4770171;30;20055;-91
2021/11/26 03:18:28;;;;;;;6.18;1.80;;;;;;;-145.71;100.00;60690.53;4753830;30;20097;-91
2021/11/26 03:21:52;;;;;;;17.50;2.13;;;;;;;-145.71;100.00;60690.53;4753929;30;20039;-92
2021/11/26 03:25:16;;;;;;;6.22;2.00;;;;;;;-145.71;100.00;60690.53;4770937;30;20065;-91
2021/11/26 03:28:40;;;;;;;8.45;2.40;;;;;;;-145.71;100.00;60690.53;4753396;30;20032;-92
2021/11/26 03:32:05;;;;;;;8.20;1.52;;;;;;;-145.71;100.00;60690.53;4775406;30;20075;-92
2021/11/26 03:35:29;;;;;;;9.55;2.33;;;;;;;-145.71;100.00;60690.53;4753656;30;20520;-91
2021/11/26 03:38:53;;;;;;;8.60;1.58;;;;;;;-145.71;100.00;60690.53;4753874;30;20040;-91
2021/11/26 03:42:17;;;;;;;9.20;1.90;;;;;;;-145.71;100.00;60690.53;4768132;30;20043;-91
2021/11/26 03:45:40;;;;;;;6.00;2.17;;;;;;;-145.71;100.00;60690.53;4753362;30;20082;-91
2021/11/26 03:49:04;;;;;;;7.05;1.65;;;;;;;-145.71;100.00;60690.53;4753732;30;20131;-91
2021/11/26 03:52:29;;;;;;;11.25;2.42;;;;;;;-145.71;100.00;60690.53;4753167;30;20036;-91
2021/11/26 03:55:53;;;;;;;8.13;1.63;;;;;;;-145.71;100.00;60690.53;4753118;30;20552;-91
2021/11/26 03:59:17;;;;;;;11.25;1.75;;;;;;;-145.71;100.00;60690.53;4756235;30;20127;-91
2021/11/26 04:02:41;;;;;;;12.27;2.55;;;;;;;-145.71;100.00;60690.53;4760526;30;20409;-91
2021/11/26 04:06:05;;;;;;;9.65;1.90;;;;;;;-145.71;100.00;60690.53;4753209;30;20043;-91
2021/11/26 04:09:29;;;;;;;10.95;2.42;;;;;;;-145.71;100.00;60690.53;4768753;30;20096;-91
2021/11/26 04:12:54;;;;;;;14.20;3.67;;;;;;;-145.71;100.00;60690.53;4753014;30;20067;-90
2021/11/26 04:16:18;;;;;;;9.23;2.78;;;;;;;-145.71;100.00;60690.53;4752704;30;20072;-90
2021/11/26 04:19:43;;;;;;;10.50;2.20;;;;;;;-145.71;100.00;60690.53;4753192;30;20039;-91
2021/11/26 04:23:08;;;;;;;13.48;3.05;;;;;;;-145.71;100.00;60690.53;4768958;30;20059;-91
2021/11/26 04:26:32;;;;;;;6.50;1.75;;;;;;;-145.71;100.00;60690.53;4769088;30;20031;-91
2021/11/26 04:29:56;;;;;;;14.15;2.42;;;;;;;-145.71;100.00;60690.53;4773310;30;20500;-91
2021/11/26 04:33:20;;;;;;;5.65;1.95;;;;;;;-145.71;100.00;60690.53;4769180;30;20038;-91
2021/11/26 04:36:47;;;;;;;8.63;2.10;;;;;;;-145.71;100.00;60690.53;4767515;30;20683;-91
2021/11/26 04:40:12;;;;;;;13.98;2.67;;;;;;;-145.71;100.00;60690.53;4768487;30;20049;-91
2021/11/26 04:43:37;;;;;;;8.05;1.90;;;;;;;-145.71;100.00;60690.53;4752430;30;20035;-91
2021/11/26 04:47:01;;;;;;;13.30;2.38;;;;;;;-145.71;100.00;60690.53;4768676;30;20783;-91
2021/11/26 04:50:25;;;;;;;9.10;1.90;;;;;;;-145.71;100.00;60690.53;4768823;30;20047;-91
2021/11/26 04:53:49;;;;;;;14.05;2.47;;;;;;;-145.71;100.00;60690.53;4760430;30;20035;-91
2021/11/26 04:57:13;;;;;;;7.53;2.63;;;;;;;-145.71;100.00;60690.53;4768810;30;20036;-91
2021/11/26 05:00:38;;;;;;;13.73;2.72;;;;;;;-145.71;100.00;60690.53;4752131;30;20035;-91
2021/11/26 05:19:20;;;;;;;10.55;2.22;;;;;;;-145.71;100.00;60690.53;5774253;24;20029;-91
2021/11/26 09:07:37;;;;;;;11.52;2.20;;;;;;;;;;6253890;22;20045;-92
2021/11/26 14:05:25;;;;;;;25.20;11.23;;;;;;;;;;5198735;22;20336;-91
2021/11/26 14:46:28;;;;;;;27.73;15.27;;;;;;;;;;5092404;28;20059;-91
2021/11/26 14:48:55;;;;;;;26.25;14.88;;;;;;;;;;5075527;28;20024;-92
2021/11/26 14:51:28;;;;;;;27.88;15.50;;;;;;;;;;5076070;28;20107;-92
2021/11/26 14:53:54;;;;;;;27.42;15.02;;;;;;;;;;5075553;28;20024;-91
2021/11/26 14:56:21;;;;;;;31.77;15.23;;;;;;;;;;5093913;28;20016;-91
2021/11/26 14:58:47;;;;;;;26.02;14.80;;;;;;;;;;5093734;28;20591;-91
2021/11/26 15:01:18;;;;;;;27.88;15.63;;;;;;;;;;5075283;28;20024;-91
2021/11/26 15:03:43;;;;;;;26.80;14.25;;;;;;;;;;5093802;28;20096;-91
2021/11/26 15:06:08;;;;;;;29.02;15.25;;;;;;;;;;5075292;28;20043;-91
2021/11/26 15:08:33;;;;;;;32.33;16.20;;;;;;;;;;5093210;28;20104;-91
2021/11/26 15:10:59;;;;;;;23.65;15.45;;;;;;;;;;5075457;28;20012;-91
2021/11/26 15:13:24;;;;;;;24.27;15.70;;;;;;;;;;5075029;28;20024;-91
2021/11/26 15:15:50;;;;;;;29.40;15.35;;;;;;;;;;5093533;28;20095;-91
2021/11/26 15:18:15;;;;;;;23.75;14.98;;;;;;;;;;5074549;28;20384;-91
2021/11/26 15:20:41;;;;;;;32.55;15.63;;;;;;;;;;5093429;28;20077;-91
2021/11/26 15:23:06;;;;;;;31.80;15.90;;;;;;;;;;5076694;28;20386;-91
2021/11/26 15:25:32;;;;;;;31.08;15.55;;;;;;;;;;5093098;28;20047;-92
2021/11/26 15:27:57;;;;;;;23.83;14.55;;;;;;;;;;5093269;28;20034;-91
2021/11/26 15:30:22;;;;;;;28.30;15.20;;;;;;;;;;5093092;28;20101;-91
2021/11/26 15:32:48;;;;;;;28.92;14.82;;;;;;;;;;5074828;28;20750;-91
2021/11/26 15:35:13;;;;;;;27.30;13.57;;;;;;;;;;5074966;28;20059;-91
2021/11/26 15:37:39;;;;;;;25.73;14.18;;;;;;;;;;5092893;28;20069;-91
2021/11/26 15:40:05;;;;;;;28.77;16.02;;;;;;;;;;5074837;28;20065;-92
2021/11/26 15:42:30;;;;;;;31.23;16.25;;;;;;;;;;5074688;28;20098;-91
2021/11/26 15:44:55;;;;;;;27.88;15.90;;;;;;;;;;5074243;28;20052;-91
2021/11/26 15:47:20;;;;;;;34.92;17.15;;;;;;;;;;5074417;28;20072;-91
2021/11/26 15:49:46;;;;;;;31.65;16.45;;;;;;;;;;5074467;28;20035;-92
2021/11/26 15:52:13;;;;;;;31.13;14.93;;;;;;;;;;5092861;28;20082;-91
2021/11/26 15:54:38;;;;;;;32.78;17.50;;;;;;;;;;5093224;28;20023;-92
2021/11/26 15:57:04;;;;;;;31.60;16.17;;;;;;;;;;5074630;28;20024;-91
2021/11/26 15:59:29;;;;;;;26.25;15.20;;;;;;;;;;5092915;28;20061;-92
2021/11/26 16:01:55;;;;;;;25.58;15.50;;;;;;;;;;5074376;28;20558;-92
2021/11/26 16:04:21;;;;;;;28.42;15.55;;;;;;;;;;5074268;28;20016;-91
2021/11/26 16:06:46;;;;;;;30.30;15.27;;;;;;;;;;5074139;28;20548;-91
2021/11/26 16:09:11;;;;;;;29.88;14.40;;;;;;;;;;5092112;28;20031;-91
2021/11/26 16:11:37;;;;;;;26.70;16.38;;;;;;;;;;5074004;28;20047;-91
2021/11/26 16:14:02;;;;;;;29.38;15.82;;;;;;;;;;5073930;28;20024;-91
2021/11/26 16:16:28;;;;;;;26.02;15.50;;;;;;;;;;5073977;28;20418;-91
2021/11/26 16:18:55;;;;;;;37.83;16.10;;;;;;;;;;5074014;28;20027;-91
2021/11/26 16:21:21;;;;;;;31.48;17.10;;;;;;;;;;5074105;28;20023;-92
2021/11/26 16:23:46;;;;;;;33.65;16.33;;;;;;;;;;5073831;28;20035;-92
2021/11/26 16:26:12;;;;;;;31.52;15.75;;;;;;;;;;5091933;28;20032;-91
2021/11/26 16:28:37;;;;;;;32.47;16.40;;;;;;;;;;5091796;28;20024;-91
2021/11/26 16:31:08;;;;;;;25.77;13.30;;;;;;;;;;5091069;28;20023;-91
2021/11/26 16:33:35;;;;;;;25.63;15.43;;;;;;;;;;5092284;28;20020;-92
2021/11/26 16:36:01;;;;;;;28.58;14.70;;;;;;;;;;5092564;28;20585;-91
2021/11/26 16:38:27;;;;;;;44.28;16.63;;;;;;;;;;5073648;28;20023;-91
2021/11/26 16:40:53;;;;;;;31.17;15.23;;;;;;;;;;5074365;28;20044;-92
2021/11/26 16:43:18;;;;;;;27.10;15.95;;;;;;;;;;5074690;28;20097;-91
2021/11/26 16:45:43;;;;;;;28.02;14.77;;;;;;;;;;5091982;28;20055;-91
2021/11/26 16:48:09;;;;;;;27.80;14.70;;;;;;;;;;5073653;28;20537;-92
2021/11/26 16:50:35;;;;;;;25.23;14.40;;;;;;;;;;5073364;28;20028;-92
2021/11/26 16:53:02;;;;;;;28.25;15.60;;;;;;;;;;5091779;28;20027;-92
2021/11/26 16:55:27;;;;;;;25.73;14.40;;;;;;;;;;5091904;28;20387;-92
2021/11/26 16:57:53;;;;;;;26.80;15.18;;;;;;;;;;5073294;28;20042;-92
2021/11/26 17:00:19;;;;;;;26.33;14.93;;;;;;;;;;5073344;28;20020;-91
2021/11/26 17:02:44;;;;;;;26.38;15.00;;;;;;;;;;5073422;28;20463;-92
2021/11/26 17:05:10;;;;;;;29.35;15.07;;;;;;;;;;5073415;28;20088;-91
2021/11/26 17:07:35;;;;;;;28.17;14.35;;;;;;;;;;5093320;28;20016;-91
2021/11/26 17:10:02;;;;;;;29.65;14.55;;;;;;;;;;5074531;28;20388;-91
2021/11/26 17:12:29;;;;;;;32.58;15.63;;;;;;;;;;5073071;28;20020;-92
2021/11/26 17:14:55;;;;;;;21.80;13.95;;;;;;;;;;5091392;28;20016;-91
2021/11/26 17:17:20;;;;;;;27.90;14.52;;;;;;;;;;5073393;28;20016;-91
2021/11/26 17:19:45;;;;;;;28.90;16.17;;;;;;;;;;5073219;28;20027;-91
2021/11/26 17:24:40;;;;;;;25.50;12.80;;;;;;;;;;5094677;28;20080;-92
2021/11/26 17:27:06;;;;;;;28.38;13.85;;;;;;;;;;5091254;28;20071;-92
2021/11/26 17:29:31;;;;;;;34.53;14.45;;;;;;;;;;5091630;28;20016;-91
2021/11/26 17:31:56;;;;;;;28.92;13.70;;;;;;;;;;5074358;28;20016;-91
2021/11/26 17:34:22;;;;;;;30.25;14.30;;;;;;;;;;5076716;28;20024;-92
2021/11/26 17:36:47;;;;;;;26.40;13.98;;;;;;;;;;5072996;28;20052;-92
2021/11/26 17:39:12;;;;;;;24.08;14.15;;;;;;;;;;5073391;28;20487;-91
2021/11/26 17:41:38;;;;;;;28.98;13.55;;;;;;;;;;5073094;28;20024;-91
2021/11/26 17:44:03;;;;;;;28.42;14.88;;;;;;;;;;5091166;28;20030;-92
2021/11/26 17:46:28;;;;;;;24.00;13.18;;;;;;;;;;5073044;28;20128;-91
2021/11/26 17:48:54;;;;;;;27.60;14.30;;;;;;;;;;5072910;28;20488;-90
2021/11/26 17:51:23;;;;;;;23.60;13.65;;;;;;;;;;5091029;28;20015;-90
2021/11/26 17:53:48;;;;;;;24.02;14.50;;;;;;;;;;5073050;28;20016;-90
2021/11/26 17:56:14;;;;;;;33.70;13.68;;;;;;;;;;5091174;28;20050;-91
2021/11/26 17:58:39;;;;;;;37.95;16.88;;;;;;;;;;5072645;28;20023;-91
2021/11/26 18:01:04;;;;;;;24.35;13.68;;;;;;;;;;5072797;28;20028;-90
2021/11/26 18:03:32;;;;;;;25.50;14.27;;;;;;;;;;5074175;28;20016;-90
2021/11/26 18:06:06;;;;;;;31.75;16.27;;;;;;;;;;5091000;28;20455;-90
2021/11/26 18:08:32;;;;;;;29.30;13.55;;;;;;;;;;5091087;28;20475;-91
2021/11/26 18:11:02;;;;;;;28.20;14.90;;;;;;;;;;5072521;28;20020;-90
2021/11/26 18:13:27;;;;;;;27.30;15.27;;;;;;;;;;5090704;28;20016;-90
2021/11/26 18:15:54;;;;;;;26.33;14.70;;;;;;;;;;5072408;28;20036;-90
2021/11/26 18:18:21;;;;;;;27.35;15.10;;;;;;;;;;5073417;28;20030;-91
2021/11/26 18:20:48;;;;;;;33.55;16.27;;;;;;;;;;5091129;28;20016;-91
2021/11/26 18:23:15;;;;;;;25.73;14.90;;;;;;;;;;5072622;28;20078;-90
2021/11/26 18:25:41;;;;;;;30.02;15.27;;;;;;;;;;5090815;28;20471;-91
2021/11/26 18:28:06;;;;;;;28.23;15.13;;;;;;;;;;5072912;28;20024;-90
2021/11/26 18:30:32;;;;;;;30.92;16.55;;;;;;;;;;5090986;28;20103;-91
2021/11/26 18:32:58;;;;;;;24.38;14.35;;;;;;;;;;5078248;28;20023;-91
2021/11/26 18:35:25;;;;;;;25.27;14.63;;;;;;;;;;5090539;28;20016;-91
2021/11/26 18:37:52;;;;;;;28.42;15.18;;;;;;;;;;5072355;28;20024;-91
2021/11/26 18:40:19;;;;;;;25.60;14.77;;;;;;;;;;5071892;28;20107;-91
2021/11/26 18:42:46;;;;;;;26.02;15.77;;;;;;;;;;5071897;28;20076;-91
2021/11/26 18:45:13;;;;;;;23.73;15.43;;;;;;;;;;5090319;28;20103;-90
2021/11/26 18:47:39;;;;;;;24.85;14.70;;;;;;;;;;5090864;28;20093;-90
2021/11/26 18:50:05;;;;;;;24.73;15.20;;;;;;;;;;5073012;28;20020;-90
2021/11/26 18:52:31;;;;;;;25.85;15.35;;;;;;;;;;5072388;28;20079;-90
2021/11/26 18:54:56;;;;;;;26.08;15.38;;;;;;;;;;5076096;28;20020;-90
2021/11/26 18:57:22;;;;;;;29.30;16.38;;;;;;;;;;5076459;28;20031;-91
2021/11/26 18:59:47;;;;;;;27.23;16.52;;;;;;;;;;5094726;28;20016;-90
2021/11/26 19:02:13;;;;;;;33.33;17.48;;;;;;;;;;5094525;28;20024;-91
2021/11/26 19:04:38;;;;;;;27.20;16.40;;;;;;;;;;5094027;28;20020;-90
2021/11/26 19:07:04;;;;;;;29.80;16.70;;;;;;;;;;5075994;28;20039;-90
2021/11/26 19:09:29;;;;;;;28.70;17.30;;;;;;;;;;5094480;28;20054;-89
2021/11/26 19:11:55;;;;;;;30.75;17.55;;;;;;;;;;5093608;28;20099;-90
2021/11/26 19:14:20;;;;;;;33.28;18.17;;;;;;;;;;5075466;28;20073;-90
2021/11/26 19:16:45;;;;;;;33.50;18.38;;;;;;;;;;5094761;28;20858;-91
2021/11/26 19:19:11;;;;;;;27.85;16.90;;;;;;;;;;5078390;28;20028;-90
2021/11/26 19:21:36;;;;;;;32.33;16.80;;;;;;;;;;5075470;28;20043;-90
2021/11/26 19:24:02;;;;;;;27.90;18.15;;;;;;;;;;5093051;28;20105;-90
2021/11/26 19:26:27;;;;;;;27.60;17.08;;;;;;;;;;5074939;28;20024;-89
2021/11/26 19:28:53;;;;;;;25.83;17.15;;;;;;;;;;5075465;28;20114;-91
2021/11/26 19:31:18;;;;;;;27.95;17.25;;;;;;;;;;5076625;28;20024;-89
2021/11/26 19:33:44;;;;;;;33.80;20.45;;;;;;;;;;5092790;28;20071;-89
2021/11/26 19:36:09;;;;;;;32.17;18.42;;;;;;;;;;5092970;28;20468;-89
2021/11/26 19:38:35;;;;;;;26.15;17.75;;;;;;;;;;5093069;28;20060;-89
2021/11/26 19:41:00;;;;;;;26.67;16.02;;;;;;;;;;5093834;28;20020;-88
2021/11/26 19:43:25;;;;;;;28.63;17.08;;;;;;;;;;5092811;28;20020;-89
2021/11/26 19:45:55;;;;;;;30.05;18.40;;;;;;;;;;5081030;28;20089;-89
2021/11/26 19:48:20;;;;;;;30.50;17.98;;;;;;;;;;5074613;28;20551;-88
2021/11/26 19:50:46;;;;;;;28.77;16.08;;;;;;;;;;5093293;28;20089;-89
2021/11/26 19:53:12;;;;;;;28.52;17.23;;;;;;;;;;5074582;28;20020;-89
2021/11/26 19:55:37;;;;;;;27.38;16.27;;;;;;;;;;5074197;28;20031;-89
2021/11/26 19:58:03;;;;;;;25.33;15.45;;;;;;;;;;5092724;28;20557;-89
2021/11/26 20:00:28;;;;;;;27.33;16.98;;;;;;;;;;5092997;28;20020;-88
2021/11/26 20:02:54;;;;;;;26.67;16.63;;;;;;;;;;5074221;28;20020;-91
2021/11/26 20:05:20;;;;;;;25.83;15.93;;;;;;;;;;5074187;28;20169;-90
2021/11/26 20:07:46;;;;;;;26.70;15.43;;;;;;;;;;5073985;28;20027;-91
2021/11/26 20:10:13;;;;;;;22.52;16.33;;;;;;;;;;5074337;28;20016;-89
2021/11/26 20:12:38;;;;;;;26.85;15.82;;;;;;;;;;5074109;28;20703;-89
2021/11/26 20:15:05;;;;;;;22.63;15.73;;;;;;;;;;5073695;28;20540;-89
2021/11/26 20:17:33;;;;;;;25.40;16.38;;;;;;;;;;5074013;28;20046;-89
2021/11/26 20:19:58;;;;;;;28.48;16.60;;;;;;;;;;5073667;28;20756;-89
2021/11/26 20:22:26;;;;;;;22.95;15.07;;;;;;;;;;5073572;28;20103;-89
2021/11/26 20:24:52;;;;;;;22.95;15.75;;;;;;;;;;5091851;28;20059;-89
2021/11/26 20:27:17;;;;;;;24.20;15.77;;;;;;;;;;5091969;28;20040;-89
2021/11/26 20:29:42;;;;;;;26.00;15.73;;;;;;;;;;5073725;28;20020;-89
2021/11/26 20:32:07;;;;;;;21.85;16.88;;;;;;;;;;5073237;28;20073;-89
2021/11/26 20:34:33;;;;;;;20.17;14.98;;;;;;;;;;5091769;28;20024;-88
2021/11/26 20:36:59;;;;;;;22.70;14.88;;;;;;;;;;5091811;28;20028;-89
2021/11/26 20:39:24;;;;;;;22.58;15.07;;;;;;;;;;5073389;28;20028;-89
2021/11/26 20:41:50;;;;;;;25.50;15.25;;;;;;;;;;5092111;28;20023;-89
2021/11/26 20:44:16;;;;;;;20.27;13.52;;;;;;;;;;5073326;28;20038;-90
2021/11/26 20:46:41;;;;;;;24.48;14.82;;;;;;;;;;5091342;28;20047;-89
2021/11/26 20:49:07;;;;;;;24.90;15.43;;;;;;;;;;5073092;28;20055;-89
2021/11/26 20:51:35;;;;;;;22.88;14.57;;;;;;;;;;5091583;28;20016;-89
2021/11/26 20:54:00;;;;;;;21.77;15.27;;;;;;;;;;5091524;28;20048;-89
2021/11/26 20:56:25;;;;;;;22.27;14.57;;;;;;;;;;5073330;28;20055;-89
2021/11/26 20:58:51;;;;;;;19.50;12.70;;;;;;;;;;5072739;28;20480;-89
2021/11/26 21:01:16;;;;;;;18.73;12.75;;;;;;;;;;5072997;28;20031;-89
2021/11/26 21:03:41;;;;;;;18.65;12.98;;;;;;;;;;5091107;28;21080;-89
2021/11/26 21:06:07;;;;;;;22.88;13.32;;;;;;;;;;5091404;28;20024;-90
2021/11/26 21:08:32;;;;;;;18.33;13.13;;;;;;;;;;5091048;28;20020;-89
2021/11/26 21:10:57;;;;;;;21.40;13.88;;;;;;;;;;5091582;28;20051;-89
2021/11/26 21:13:22;;;;;;;17.83;12.85;;;;;;;;;;5072766;28;20035;-89
2021/11/26 21:15:48;;;;;;;20.73;13.38;;;;;;;;;;5091321;28;20055;-89
2021/11/26 21:18:16;;;;;;;22.90;14.07;;;;;;;;;;5072643;28;20062;-89
2021/11/26 21:20:42;;;;;;;17.73;12.75;;;;;;;;;;5090890;28;20055;-89
2021/11/26 21:23:07;;;;;;;19.23;12.73;;;;;;;;;;5090692;28;20076;-89
2021/11/26 21:25:32;;;;;;;18.83;12.93;;;;;;;;;;5090868;28;20081;-89
2021/11/26 21:27:58;;;;;;;15.85;11.93;;;;;;;;;;5090967;28;20048;-89
2021/11/26 21:30:23;;;;;;;21.42;12.88;;;;;;;;;;5072730;28;20122;-89
2021/11/26 21:32:53;;;;;;;20.92;12.45;;;;;;;;;;5090568;28;20092;-89
2021/11/26 21:35:19;;;;;;;20.80;12.95;;;;;;;;;;5072732;28;20027;-89
2021/11/26 21:37:44;;;;;;;20.50;13.15;;;;;;;;;;5090545;28;20429;-89
2021/11/26 21:40:09;;;;;;;21.45;13.63;;;;;;;;;;5090859;28;20012;-89
2021/11/26 21:42:35;;;;;;;17.27;12.35;;;;;;;;;;5090362;28;20027;-88
2021/11/26 21:45:03;;;;;;;24.25;12.82;;;;;;;;;;5073249;28;20463;-89
2021/11/26 21:47:28;;;;;;;20.08;14.00;;;;;;;;;;5091164;28;20028;-89
2021/11/26 21:49:53;;;;;;;16.27;12.75;;;;;;;;;;5072363;28;20023;-90
2021/11/26 21:52:19;;;;;;;21.85;13.27;;;;;;;;;;5072570;28;20020;-90
2021/11/26 21:54:44;;;;;;;17.02;12.88;;;;;;;;;;5090802;28;20507;-91
2021/11/26 21:57:09;;;;;;;18.75;12.93;;;;;;;;;;5090805;28;20020;-91
2021/11/26 21:59:35;;;;;;;23.17;13.45;;;;;;;;;;5090434;28;20057;-90
2021/11/26 22:02:04;;;;;;;27.77;14.88;;;;;;;;;;5090803;28;20020;-90
2021/11/26 22:04:30;;;;;;;21.10;13.80;;;;;;;;;;5072267;28;20066;-90
2021/11/26 22:06:55;;;;;;;21.98;14.43;;;;;;;;;;5072288;28;20082;-90
2021/11/26 22:09:21;;;;;;;19.85;14.18;;;;;;;;;;5072614;28;20464;-90
2021/11/26 22:11:46;;;;;;;20.63;13.18;;;;;;;;;;5072450;28;20058;-90
2021/11/26 22:14:11;;;;;;;20.00;13.80;;;;;;;;;;5072549;28;20031;-90
2021/11/26 22:16:37;;;;;;;23.70;14.48;;;;;;;;;;5074081;28;20440;-91
2021/11/26 22:19:04;;;;;;;21.58;13.95;;;;;;;;;;5091378;28;20593;-91
2021/11/26 22:21:29;;;;;;;22.10;14.70;;;;;;;;;;5072096;28;20020;-90
2021/11/26 22:23:55;;;;;;;22.13;15.48;;;;;;;;;;5071852;28;20055;-90
2021/11/26 22:26:20;;;;;;;20.67;15.15;;;;;;;;;;5090661;28;20035;-90
2021/11/26 22:28:46;;;;;;;24.17;14.82;;;;;;;;;;5093147;28;20073;-90
2021/11/26 22:31:11;;;;;;;26.00;15.75;;;;;;;;;;5094149;28;20073;-90
2021/11/26 22:33:36;;;;;;;24.52;15.30;;;;;;;;;;5076110;28;20028;-90
2021/11/26 22:36:02;;;;;;;23.52;15.90;;;;;;;;;;5076012;28;20024;-90
2021/11/26 22:38:27;;;;;;;19.48;13.90;;;;;;;;;;5075558;28;20044;-90
2021/11/26 22:40:53;;;;;;;20.58;14.98;;;;;;;;;;5075909;28;20024;-90
2021/11/26 22:43:21;;;;;;;26.20;16.40;;;;;;;;;;5094123;28;20052;-90
2021/11/26 22:45:47;;;;;;;22.80;14.60;;;;;;;;;;5075420;28;20395;-90
2021/11/26 22:48:13;;;;;;;24.30;16.27;;;;;;;;;;5093753;28;20016;-90
2021/11/26 22:50:38;;;;;;;24.25;16.38;;;;;;;;;;5075611;28;20023;-90
2021/11/26 22:53:04;;;;;;;22.40;15.82;;;;;;;;;;5094859;28;20020;-90
2021/11/26 22:55:29;;;;;;;20.55;14.73;;;;;;;;;;5094725;28;20019;-90
2021/11/26 22:57:55;;;;;;;23.42;15.88;;;;;;;;;;5094294;28;20023;-91
2021/11/26 23:00:23;;;;;;;22.05;15.85;;;;;;;;;;5094160;28;20069;-90
2021/11/26 23:02:48;;;;;;;20.80;15.65;;;;;;;;;;5078171;28;20031;-90
2021/11/26 23:05:14;;;;;;;26.45;17.45;;;;;;;;;;5075400;28;20024;-90
2021/11/26 23:07:39;;;;;;;19.80;14.93;;;;;;;;;;5075250;28;20034;-90
2021/11/26 23:10:05;;;;;;;20.63;15.45;;;;;;;;;;5075154;28;20020;-89
2021/11/26 23:12:30;;;;;;;23.23;15.52;;;;;;;;;;5075624;28;20016;-90
2021/11/26 23:14:57;;;;;;;24.40;15.88;;;;;;;;;;5093314;28;20016;-90
2021/11/26 23:17:22;;;;;;;23.13;16.55;;;;;;;;;;5093258;28;20111;-90
2021/11/26 23:19:47;;;;;;;24.52;16.33;;;;;;;;;;5075281;28;20103;-90
2021/11/26 23:22:13;;;;;;;19.65;15.32;;;;;;;;;;5093368;28;20024;-90
2021/11/26 23:24:38;;;;;;;26.85;16.40;;;;;;;;;;5092948;28;20044;-90
2021/11/26 23:27:03;;;;;;;24.08;16.55;;;;;;;;;;5075202;28;20498;-90
2021/11/26 23:29:29;;;;;;;25.95;17.40;;;;;;;;;;5075040;28;20098;-89
2021/11/26 23:31:54;;;;;;;23.92;16.63;;;;;;;;;;5093443;28;20028;-89
2021/11/26 23:34:20;;;;;;;22.83;17.30;;;;;;;;;;5074522;28;20032;-89
2021/11/26 23:36:46;;;;;;;25.13;16.67;;;;;;;;;;5074907;28;20055;-90
2021/11/26 23:39:11;;;;;;;26.40;17.30;;;;;;;;;;5092432;28;20099;-89
2021/11/26 23:41:37;;;;;;;28.33;19.10;;;;;;;;;;5092704;28;20020;-89
2021/11/26 23:44:03;;;;;;;24.67;16.05;;;;;;;;;;5075061;28;20380;-89
2021/11/26 23:46:28;;;;;;;22.95;16.70;;;;;;;;;;5092776;28;20417;-89
2021/11/26 23:48:53;;;;;;;23.35;16.48;;;;;;;;;;5074412;28;20028;-90
2021/11/26 23:51:18;;;;;;;24.88;16.40;;;;;;;;;;5074482;28;20020;-90
2021/11/26 23:53:45;;;;;;;22.50;16.73;;;;;;;;;;5074422;28;20059;-90
2021/11/26 23:56:11;;;;;;;21.63;15.48;;;;;;;;;;5074475;28;20034;-90
2021/11/26 23:58:36;;;;;;;23.13;16.27;;;;;;;;;;5076210;28;20024;-90
